Terminal Aerodrome Forecast
Issued by NWS

Home | Current Version | Previous Version | Text Only | Print | Product List | Glossary On
Versions: 1 2 3 4 5 6 7 8 9 10 11 12 13 14
000
FTUS45 KABQ 280541
TAFTCC
TAF
KTCC 280541Z 2806/2906 25010KT P6SM SCT100 BKN250
     FM280700 35009KT P6SM BKN250
     FM281200 03011KT P6SM BKN250
     FM282000 05010KT P6SM SCT100 BKN200
     FM290200 05009KT P6SM VCSH BKN100=

USA.gov is the U.S. government's official web portal to all federal, state and local government web resources and services.